createdAt,value
2018-08-18T00:01:37.414Z,20.80
2018-08-18T00:04:24.966Z,20.70
2018-08-18T00:06:54.294Z,20.70
2018-08-18T00:09:23.773Z,20.70
2018-08-18T00:11:53.059Z,20.70
2018-08-18T00:14:22.310Z,20.60
2018-08-18T00:16:51.564Z,20.60
2018-08-18T00:19:24.081Z,20.60
2018-08-18T00:21:53.313Z,20.60
2018-08-18T00:24:22.568Z,20.60
2018-08-18T00:26:51.817Z,20.70
2018-08-18T00:29:21.064Z,20.70
2018-08-18T00:31:50.285Z,20.80
2018-08-18T00:34:19.563Z,20.80
2018-08-18T00:36:48.820Z,20.70
2018-08-18T00:39:18.032Z,20.70
2018-08-18T00:41:47.276Z,20.80
2018-08-18T00:44:16.535Z,20.80
2018-08-18T00:46:45.781Z,20.90
2018-08-18T00:49:15.095Z,20.90
2018-08-18T00:51:44.339Z,20.90
2018-08-18T00:54:13.606Z,20.80
2018-08-18T00:56:43.262Z,20.80
2018-08-18T00:59:12.537Z,20.80
2018-08-18T01:01:41.928Z,20.70
2018-08-18T01:04:11.210Z,20.60
2018-08-18T01:06:41.534Z,20.60
2018-08-18T01:09:12.690Z,20.60
2018-08-18T01:11:41.999Z,20.50
2018-08-18T01:14:17.152Z,20.60
2018-08-18T01:16:52.614Z,20.60
2018-08-18T01:19:22.978Z,20.60
2018-08-18T01:21:58.197Z,20.60
2018-08-18T01:24:28.045Z,20.60
2018-08-18T01:26:57.681Z,20.60
2018-08-18T01:29:27.049Z,20.60
2018-08-18T01:31:56.277Z,20.60
2018-08-18T01:34:25.573Z,20.60
2018-08-18T01:36:54.913Z,20.60
2018-08-18T01:39:24.153Z,20.60
2018-08-18T01:41:53.400Z,20.50
2018-08-18T01:44:23.902Z,20.50
2018-08-18T01:46:54.795Z,20.50
2018-08-18T01:49:40.480Z,20.50
2018-08-18T01:52:16.398Z,20.50
2018-08-18T01:54:46.110Z,20.50
2018-08-18T01:57:17.888Z,20.50
2018-08-18T01:59:47.692Z,20.40
2018-08-18T02:02:26.833Z,20.40
2018-08-18T02:05:03.466Z,20.40
2018-08-18T02:07:33.747Z,20.30
2018-08-18T02:10:03.089Z,20.30
2018-08-18T02:12:32.325Z,20.20
2018-08-18T02:15:01.576Z,20.20
2018-08-18T02:17:32.735Z,20.10
2018-08-18T02:20:02.232Z,20.10
2018-08-18T02:22:32.174Z,20.10
2018-08-18T02:25:01.446Z,20.10
2018-08-18T02:27:30.676Z,20.10
2018-08-18T02:30:14.898Z,20.10
2018-08-18T02:32:44.148Z,20.00
2018-08-18T02:35:13.424Z,20.00
2018-08-18T02:37:42.662Z,20.00
2018-08-18T02:40:14.117Z,20.00
2018-08-18T02:42:43.367Z,19.90
2018-08-18T02:45:13.558Z,19.90
2018-08-18T02:47:43.112Z,19.90
2018-08-18T02:50:13.799Z,19.90
2018-08-18T02:52:43.040Z,19.80
2018-08-18T02:55:12.911Z,19.80
2018-08-18T02:57:43.787Z,19.80
2018-08-18T03:00:22.398Z,19.80
2018-08-18T03:03:00.414Z,19.80
2018-08-18T03:05:29.719Z,19.80
2018-08-18T03:07:59.036Z,19.80
2018-08-18T03:10:28.428Z,19.70
2018-08-18T03:12:59.990Z,19.70
2018-08-18T03:16:09.289Z,19.70
2018-08-18T03:18:49.750Z,19.70
2018-08-18T03:21:20.815Z,19.60
2018-08-18T03:24:07.345Z,19.60
2018-08-18T03:26:41.346Z,19.60
2018-08-18T03:29:11.024Z,19.60
2018-08-18T03:31:40.788Z,19.60
2018-08-18T03:34:10.587Z,19.60
2018-08-18T03:36:48.840Z,19.60
2018-08-18T03:39:25.226Z,19.60
2018-08-18T03:41:55.861Z,19.60
2018-08-18T03:44:25.073Z,19.60
2018-08-18T03:46:54.340Z,19.60
2018-08-18T03:49:23.703Z,19.60
2018-08-18T03:51:54.142Z,19.60
2018-08-18T03:54:23.371Z,19.60
2018-08-18T03:56:52.653Z,19.60
2018-08-18T03:59:21.869Z,19.60
2018-08-18T04:01:54.365Z,19.60
2018-08-18T04:04:24.663Z,19.60
2018-08-18T04:06:55.366Z,19.60
2018-08-18T04:09:26.081Z,19.70
2018-08-18T04:11:56.757Z,19.70
2018-08-18T04:14:31.410Z,19.70
2018-08-18T04:17:00.749Z,19.60
2018-08-18T04:19:29.961Z,19.60
2018-08-18T04:21:59.233Z,19.50
2018-08-18T04:24:34.423Z,19.50
2018-08-18T04:27:03.665Z,19.50
2018-08-18T04:29:32.948Z,19.50
2018-08-18T04:32:02.670Z,19.50
2018-08-18T04:34:31.952Z,19.50
2018-08-18T04:37:02.442Z,19.50
2018-08-18T04:39:31.835Z,19.50
2018-08-18T04:42:01.097Z,19.50
2018-08-18T04:44:30.378Z,19.50
2018-08-18T04:46:59.635Z,19.50
2018-08-18T04:49:29.019Z,19.50
2018-08-18T04:51:58.231Z,19.40
2018-08-18T04:54:27.513Z,19.40
2018-08-18T04:56:56.772Z,19.40
2018-08-18T04:59:26.204Z,19.40
2018-08-18T05:01:55.417Z,19.40
2018-08-18T05:04:24.657Z,19.40
2018-08-18T05:06:53.893Z,19.40
2018-08-18T05:09:23.108Z,19.40
2018-08-18T05:11:52.302Z,19.40
2018-08-18T05:14:21.521Z,19.40
2018-08-18T05:16:50.766Z,19.50
2018-08-18T05:19:20.043Z,19.50
2018-08-18T05:21:49.297Z,19.50
2018-08-18T05:24:26.961Z,19.60
2018-08-18T05:26:56.471Z,19.60
2018-08-18T05:29:25.753Z,19.70
2018-08-18T05:31:55.018Z,19.60
2018-08-18T05:34:24.320Z,19.60
2018-08-18T05:36:53.617Z,19.60
2018-08-18T05:39:22.878Z,19.60
2018-08-18T05:41:52.189Z,19.60
2018-08-18T05:44:21.421Z,19.60
2018-08-18T05:46:50.662Z,19.60
2018-08-18T05:49:19.910Z,19.70
2018-08-18T05:51:50.693Z,19.70
2018-08-18T05:54:25.403Z,19.70
2018-08-18T05:56:55.704Z,19.70
2018-08-18T05:59:24.965Z,19.80
2018-08-18T06:01:54.224Z,19.80
2018-08-18T06:04:23.463Z,19.80
2018-08-18T06:06:53.338Z,19.80
2018-08-18T06:09:23.352Z,19.80
2018-08-18T06:11:53.456Z,19.80
2018-08-18T06:14:22.690Z,19.80
2018-08-18T06:16:52.654Z,19.70
2018-08-18T06:19:21.892Z,19.80
2018-08-18T06:21:51.124Z,19.90
2018-08-18T06:24:20.481Z,19.90
2018-08-18T06:26:49.706Z,19.90
2018-08-18T06:29:18.952Z,19.90
2018-08-18T06:32:00.749Z,20.00
2018-08-18T06:34:31.844Z,20.10
2018-08-18T06:37:02.197Z,20.10
2018-08-18T06:39:50.872Z,20.20
2018-08-18T06:42:46.280Z,20.30
2018-08-18T06:45:18.179Z,20.30
2018-08-18T06:47:47.463Z,20.40
2018-08-18T06:50:17.714Z,20.40
2018-08-18T06:52:47.536Z,20.40
2018-08-18T06:55:18.931Z,20.50
2018-08-18T06:57:51.680Z,20.50
2018-08-18T07:00:25.362Z,20.50
2018-08-18T07:02:54.748Z,20.50
2018-08-18T07:05:23.989Z,20.50
2018-08-18T07:07:53.219Z,20.40
2018-08-18T07:10:35.565Z,20.40
2018-08-18T07:13:08.250Z,20.40
2018-08-18T07:15:39.738Z,20.40
2018-08-18T07:18:10.956Z,20.40
2018-08-18T07:20:40.258Z,20.50
2018-08-18T07:23:09.640Z,20.50
2018-08-18T07:25:48.730Z,20.40
2018-08-18T07:28:22.288Z,20.40
2018-08-18T07:30:51.601Z,20.50
2018-08-18T07:33:20.832Z,20.50
2018-08-18T07:35:50.224Z,20.50
2018-08-18T07:38:19.482Z,20.60
2018-08-18T07:40:50.973Z,20.60
2018-08-18T07:43:23.409Z,20.60
2018-08-18T07:45:54.886Z,20.60
2018-08-18T07:48:25.078Z,20.50
2018-08-18T07:50:54.329Z,20.60
2018-08-18T07:53:23.603Z,20.60
2018-08-18T07:55:52.882Z,20.60
2018-08-18T07:58:24.637Z,20.70
2018-08-18T08:00:56.942Z,20.70
2018-08-18T08:03:26.300Z,20.70
2018-08-18T08:05:55.780Z,20.70
2018-08-18T08:08:25.591Z,20.80
2018-08-18T08:10:59.809Z,20.80
2018-08-18T08:13:29.109Z,20.80
2018-08-18T08:15:58.451Z,20.80
2018-08-18T08:18:27.766Z,20.80
2018-08-18T08:20:57.112Z,20.90
2018-08-18T08:23:26.371Z,20.90
2018-08-18T08:25:55.737Z,20.90
2018-08-18T08:28:25.706Z,20.90
2018-08-18T08:30:55.118Z,20.90
2018-08-18T08:33:36.401Z,21.00
2018-08-18T08:36:13.445Z,21.10
2018-08-18T08:39:00.041Z,21.10
2018-08-18T08:41:31.797Z,21.20
2018-08-18T08:44:01.357Z,21.20
2018-08-18T08:46:30.654Z,21.30
2018-08-18T08:49:01.568Z,21.30
2018-08-18T08:51:30.863Z,21.40
2018-08-18T08:54:00.666Z,21.30
2018-08-18T08:56:45.444Z,21.40
2018-08-18T08:59:14.741Z,21.40
2018-08-18T09:01:44.016Z,21.40
2018-08-18T09:04:13.269Z,21.40
2018-08-18T09:06:48.685Z,21.40
2018-08-18T09:09:17.913Z,21.50
2018-08-18T09:11:47.177Z,21.50
2018-08-18T09:14:16.404Z,21.50
2018-08-18T09:16:45.688Z,21.50
2018-08-18T09:19:14.924Z,21.60
2018-08-18T09:21:49.390Z,21.60
2018-08-18T09:24:18.913Z,21.70
2018-08-18T09:27:09.355Z,21.70
2018-08-18T09:29:44.870Z,21.70
2018-08-18T09:32:14.534Z,21.80
2018-08-18T09:34:50.670Z,21.80
2018-08-18T09:37:20.625Z,21.90
2018-08-18T09:39:49.860Z,21.90
2018-08-18T09:42:20.055Z,21.90
2018-08-18T09:44:50.777Z,21.90
2018-08-18T09:47:20.060Z,22.00
2018-08-18T09:49:49.309Z,22.00
2018-08-18T09:52:20.078Z,21.90
2018-08-18T09:54:49.356Z,22.00
2018-08-18T09:57:18.611Z,22.10
2018-08-18T09:59:47.887Z,22.10
2018-08-18T10:02:17.108Z,22.20
2018-08-18T10:04:46.351Z,22.10
2018-08-18T10:07:15.635Z,22.00
2018-08-18T10:09:44.869Z,22.10
2018-08-18T10:12:14.185Z,22.20
2018-08-18T10:14:43.430Z,22.20
2018-08-18T10:17:12.733Z,22.40
2018-08-18T10:19:41.968Z,22.50
2018-08-18T10:22:11.224Z,22.60
2018-08-18T10:24:40.783Z,22.70
2018-08-18T10:27:10.136Z,22.80
2018-08-18T10:29:45.712Z,22.90
2018-08-18T10:32:15.030Z,23.00
2018-08-18T10:34:44.281Z,23.20
2018-08-18T10:37:14.888Z,23.20
2018-08-18T10:39:44.097Z,23.40
2018-08-18T10:42:16.045Z,23.40
2018-08-18T10:44:51.512Z,23.60
2018-08-18T10:47:23.076Z,23.70
2018-08-18T10:50:09.676Z,23.90
2018-08-18T10:52:56.204Z,24.00
2018-08-18T10:55:25.425Z,24.10
2018-08-18T10:58:00.724Z,24.20
2018-08-18T11:00:31.225Z,24.20
2018-08-18T11:03:02.171Z,24.20
2018-08-18T11:05:31.795Z,24.20
2018-08-18T11:08:08.838Z,24.30
2018-08-18T11:10:40.333Z,24.40
2018-08-18T11:13:09.672Z,24.50
2018-08-18T11:15:38.897Z,24.60
2018-08-18T11:18:08.286Z,24.70
2018-08-18T11:20:37.550Z,24.80
2018-08-18T11:23:10.816Z,24.90
2018-08-18T11:25:45.697Z,25.00
2018-08-18T11:28:15.851Z,25.00
2018-08-18T11:30:45.170Z,25.10
2018-08-18T11:33:31.221Z,25.30
2018-08-18T11:36:00.575Z,25.50
2018-08-18T11:38:29.868Z,25.50
2018-08-18T11:40:59.114Z,25.60
2018-08-18T11:43:28.959Z,25.40
2018-08-18T11:45:58.196Z,25.20
2018-08-18T11:48:27.653Z,25.50
2018-08-18T11:50:57.466Z,25.80
2018-08-18T11:53:26.823Z,26.20
2018-08-18T11:55:56.073Z,26.30
2018-08-18T11:58:25.698Z,26.50
2018-08-18T12:00:58.140Z,26.60
2018-08-18T12:03:31.774Z,26.60
2018-08-18T12:06:03.380Z,26.60
2018-08-18T12:08:34.377Z,26.60
2018-08-18T12:11:05.880Z,26.60
2018-08-18T12:13:41.060Z,26.70
2018-08-18T12:16:13.324Z,26.60
2018-08-18T12:18:44.218Z,26.80
2018-08-18T12:21:13.660Z,26.90
2018-08-18T12:23:46.833Z,26.90
2018-08-18T12:26:20.503Z,27.00
2018-08-18T12:28:55.097Z,27.00
2018-08-18T12:31:27.466Z,27.20
2018-08-18T12:33:56.901Z,27.30
2018-08-18T12:36:26.478Z,27.50
2018-08-18T12:38:57.140Z,27.60
2018-08-18T12:41:26.541Z,27.70
2018-08-18T12:43:57.200Z,27.70
2018-08-18T12:46:35.747Z,27.80
2018-08-18T12:49:06.583Z,27.90
2018-08-18T12:51:35.811Z,27.90
2018-08-18T12:54:10.666Z,28.00
2018-08-18T12:56:39.906Z,28.00
2018-08-18T12:59:09.703Z,28.00
2018-08-18T13:01:43.669Z,28.10
2018-08-18T13:04:14.391Z,28.20
2018-08-18T13:06:51.098Z,28.20
2018-08-18T13:09:21.668Z,28.30
2018-08-18T13:11:52.170Z,28.30
2018-08-18T13:14:30.157Z,28.10
2018-08-18T13:16:59.402Z,28.20
2018-08-18T13:19:32.750Z,28.20
2018-08-18T13:22:02.013Z,28.20
2018-08-18T13:24:32.319Z,28.10
2018-08-18T13:27:02.628Z,28.10
2018-08-18T13:29:32.637Z,28.10
2018-08-18T13:32:01.927Z,28.20
2018-08-18T13:34:31.209Z,28.20
2018-08-18T13:37:00.433Z,28.30
2018-08-18T13:39:29.765Z,28.20
2018-08-18T13:41:59.495Z,28.20
2018-08-18T13:44:43.211Z,28.10
2018-08-18T13:47:12.481Z,28.10
2018-08-18T13:49:41.741Z,28.00
2018-08-18T13:52:11.083Z,27.90
2018-08-18T13:54:47.373Z,28.00
2018-08-18T13:57:20.743Z,28.00
2018-08-18T13:59:50.030Z,27.90
2018-08-18T14:02:19.261Z,27.90
2018-08-18T14:04:48.564Z,27.90
2018-08-18T14:07:17.900Z,27.70
2018-08-18T14:09:52.505Z,27.80
2018-08-18T14:12:21.737Z,27.80
2018-08-18T14:14:51.004Z,27.90
2018-08-18T14:17:22.155Z,27.90
2018-08-18T14:19:51.958Z,27.90
2018-08-18T14:22:23.042Z,28.00
2018-08-18T14:24:52.301Z,27.90
2018-08-18T14:27:23.074Z,27.90
2018-08-18T14:29:52.314Z,27.90
2018-08-18T14:32:27.579Z,27.30
2018-08-18T14:35:08.041Z,27.30
2018-08-18T14:37:40.414Z,27.30
2018-08-18T14:40:13.586Z,27.40
2018-08-18T14:42:42.833Z,27.50
2018-08-18T14:45:14.736Z,27.60
2018-08-18T14:47:44.416Z,27.70
2018-08-18T14:50:18.918Z,27.60
2018-08-18T14:52:48.176Z,27.70
2018-08-18T14:55:17.689Z,27.70
2018-08-18T14:58:02.410Z,27.70
2018-08-18T15:00:32.183Z,27.70
2018-08-18T15:03:01.521Z,27.70
2018-08-18T15:05:30.925Z,27.70
2018-08-18T15:08:00.424Z,27.80
2018-08-18T15:10:39.670Z,27.80
2018-08-18T15:13:09.706Z,27.80
2018-08-18T15:15:39.191Z,27.80
2018-08-18T15:18:11.542Z,27.80
2018-08-18T15:20:41.565Z,27.60
2018-08-18T15:23:11.646Z,27.70
2018-08-18T15:25:41.805Z,27.70
2018-08-18T15:28:12.229Z,27.70
2018-08-18T15:30:43.801Z,27.70
2018-08-18T15:33:16.898Z,27.60
2018-08-18T15:35:46.208Z,27.50
2018-08-18T15:38:15.505Z,27.50
2018-08-18T15:40:45.032Z,27.60
2018-08-18T15:43:14.254Z,27.60
2018-08-18T15:46:02.732Z,27.60
2018-08-18T15:48:32.384Z,27.60
2018-08-18T15:51:01.663Z,27.60
2018-08-18T15:53:59.880Z,27.60
2018-08-18T15:56:30.275Z,27.50
2018-08-18T15:59:00.320Z,27.50
2018-08-18T16:01:30.965Z,27.50
2018-08-18T16:04:01.923Z,27.40
2018-08-18T16:06:31.416Z,27.50
2018-08-18T16:09:00.670Z,27.50
2018-08-18T16:11:30.002Z,27.40
2018-08-18T16:13:59.357Z,27.40
2018-08-18T16:16:28.661Z,27.30
2018-08-18T16:19:03.933Z,27.30
2018-08-18T16:21:34.637Z,27.30
2018-08-18T16:24:03.951Z,27.20
2018-08-18T16:26:33.404Z,27.20
2018-08-18T16:29:02.692Z,27.10
2018-08-18T16:31:31.953Z,27.10
2018-08-18T16:34:01.225Z,27.10
2018-08-18T16:36:35.679Z,27.10
2018-08-18T16:39:05.200Z,27.00
2018-08-18T16:41:34.454Z,27.00
2018-08-18T16:44:03.714Z,27.00
2018-08-18T16:46:33.085Z,27.00
2018-08-18T16:49:02.359Z,26.90
2018-08-18T16:51:31.671Z,26.80
2018-08-18T16:54:33.309Z,26.90
2018-08-18T16:57:02.589Z,27.10
2018-08-18T16:59:35.214Z,27.20
2018-08-18T17:02:05.326Z,27.10
2018-08-18T17:04:35.273Z,26.90
2018-08-18T17:07:11.564Z,26.70
2018-08-18T17:09:42.229Z,26.50
2018-08-18T17:12:21.124Z,26.40
2018-08-18T17:14:50.421Z,26.30
2018-08-18T17:17:22.536Z,26.20
2018-08-18T17:19:51.850Z,26.10
2018-08-18T17:22:21.189Z,26.00
2018-08-18T17:24:50.585Z,25.90
2018-08-18T17:27:19.863Z,25.90
2018-08-18T17:29:50.900Z,25.80
2018-08-18T17:32:20.206Z,25.80
2018-08-18T17:34:49.487Z,25.70
2018-08-18T17:37:18.765Z,25.70
2018-08-18T17:39:48.161Z,25.60
2018-08-18T17:42:17.505Z,25.60
2018-08-18T17:44:46.796Z,25.60
2018-08-18T17:47:16.063Z,25.60
2018-08-18T17:49:50.605Z,25.50
2018-08-18T17:52:19.891Z,25.40
2018-08-18T17:55:07.583Z,25.40
2018-08-18T17:57:37.876Z,25.30
2018-08-18T18:00:17.296Z,25.20
2018-08-18T18:02:53.041Z,25.20
2018-08-18T18:05:24.454Z,25.10
2018-08-18T18:07:59.615Z,25.10
2018-08-18T18:10:35.435Z,25.00
2018-08-18T18:13:18.595Z,25.00
2018-08-18T18:15:48.473Z,24.90
2018-08-18T18:18:19.307Z,24.80
2018-08-18T18:20:49.665Z,24.80
2018-08-18T18:23:19.396Z,24.80
2018-08-18T18:25:48.625Z,24.70
2018-08-18T18:28:17.951Z,24.60
2018-08-18T18:30:47.205Z,24.60
2018-08-18T18:33:16.549Z,24.60
2018-08-18T18:35:45.792Z,24.50
2018-08-18T18:38:15.047Z,24.40
2018-08-18T18:40:45.374Z,24.30
2018-08-18T18:43:14.636Z,24.30
2018-08-18T18:45:43.918Z,24.30
2018-08-18T18:48:15.223Z,24.30
2018-08-18T18:50:46.406Z,24.20
2018-08-18T18:53:15.886Z,24.20
2018-08-18T18:55:50.719Z,24.20
2018-08-18T18:58:19.991Z,24.10
2018-08-18T19:00:55.877Z,24.10
2018-08-18T19:03:25.148Z,24.10
2018-08-18T19:05:54.427Z,24.10
2018-08-18T19:08:23.674Z,24.10
2018-08-18T19:10:52.902Z,24.00
2018-08-18T19:13:22.143Z,24.10
2018-08-18T19:15:51.435Z,24.00
2018-08-18T19:18:20.667Z,24.00
2018-08-18T19:20:49.900Z,23.90
2018-08-18T19:23:20.404Z,23.90
2018-08-18T19:25:50.861Z,23.90
2018-08-18T19:28:22.418Z,23.90
2018-08-18T19:30:51.729Z,23.90
2018-08-18T19:33:21.245Z,23.80
2018-08-18T19:35:52.904Z,23.90
2018-08-18T19:38:23.269Z,23.90
2018-08-18T19:40:55.950Z,23.80
2018-08-18T19:43:27.207Z,23.70
2018-08-18T19:45:57.051Z,23.70
2018-08-18T19:48:27.706Z,23.60
2018-08-18T19:51:03.633Z,23.60
2018-08-18T19:53:35.215Z,23.50
2018-08-18T19:56:08.539Z,23.50
2018-08-18T19:58:37.800Z,23.40
2018-08-18T20:01:07.260Z,23.40
2018-08-18T20:03:36.502Z,23.30
2018-08-18T20:06:09.848Z,23.30
2018-08-18T20:08:39.102Z,23.30
2018-08-18T20:11:08.385Z,23.20
2018-08-18T20:13:37.705Z,23.20
2018-08-18T20:16:07.292Z,23.10
2018-08-18T20:18:36.578Z,23.10
2018-08-18T20:21:05.855Z,23.10
2018-08-18T20:23:35.138Z,23.10
2018-08-18T20:26:04.380Z,23.20
2018-08-18T20:28:33.673Z,23.20
2018-08-18T20:31:03.056Z,23.10
2018-08-18T20:33:32.387Z,23.00
2018-08-18T20:36:01.664Z,23.00
2018-08-18T20:38:39.038Z,23.00
2018-08-18T20:41:08.260Z,22.90
2018-08-18T20:43:37.521Z,22.90
2018-08-18T20:46:06.877Z,22.80
2018-08-18T20:48:36.215Z,22.60
2018-08-18T20:51:05.368Z,22.50
2018-08-18T20:53:34.692Z,22.40
2018-08-18T20:56:04.067Z,22.30
2018-08-18T20:58:33.907Z,22.30
2018-08-18T21:01:03.536Z,22.30
2018-08-18T21:03:51.690Z,22.20
2018-08-18T21:06:20.960Z,22.10
2018-08-18T21:08:50.251Z,21.90
2018-08-18T21:11:19.584Z,21.80
2018-08-18T21:13:50.049Z,21.70
2018-08-18T21:16:20.170Z,21.70
2018-08-18T21:18:49.450Z,21.70
2018-08-18T21:21:35.493Z,21.70
2018-08-18T21:24:05.140Z,21.70
2018-08-18T21:26:34.514Z,21.50
2018-08-18T21:29:03.912Z,21.40
2018-08-18T21:31:33.171Z,21.50
2018-08-18T21:34:03.424Z,21.40
2018-08-18T21:36:33.220Z,21.40
2018-08-18T21:39:06.025Z,21.50
2018-08-18T21:41:37.809Z,21.50
2018-08-18T21:44:09.184Z,21.40
2018-08-18T21:46:38.933Z,21.40
2018-08-18T21:49:08.473Z,21.50
2018-08-18T21:51:37.766Z,21.50
2018-08-18T21:54:07.014Z,21.50
2018-08-18T21:56:38.589Z,21.40
2018-08-18T21:59:10.054Z,21.50
2018-08-18T22:01:39.353Z,21.30
2018-08-18T22:04:09.749Z,21.20
2018-08-18T22:06:39.025Z,21.00
2018-08-18T22:09:21.594Z,21.00
2018-08-18T22:11:50.982Z,21.00
2018-08-18T22:14:20.232Z,20.90
2018-08-18T22:16:54.610Z,20.90
2018-08-18T22:19:24.057Z,20.90
2018-08-18T22:21:53.376Z,20.80
2018-08-18T22:24:22.789Z,20.80
2018-08-18T22:26:52.085Z,20.70
2018-08-18T22:29:26.037Z,20.70
2018-08-18T22:31:55.330Z,20.60
2018-08-18T22:34:24.698Z,20.60
2018-08-18T22:37:01.738Z,20.60
2018-08-18T22:39:31.126Z,20.40
2018-08-18T22:42:00.351Z,20.40
2018-08-18T22:44:29.614Z,20.40
2018-08-18T22:46:58.876Z,20.40
2018-08-18T22:49:28.148Z,20.40
2018-08-18T22:51:57.426Z,20.30
2018-08-18T22:54:26.852Z,20.20
2018-08-18T22:57:01.536Z,20.20
2018-08-18T22:59:31.361Z,20.10
2018-08-18T23:02:00.689Z,20.00
2018-08-18T23:04:35.303Z,20.10
2018-08-18T23:07:05.737Z,20.10
2018-08-18T23:09:34.988Z,20.20
2018-08-18T23:12:06.568Z,20.20
2018-08-18T23:14:36.868Z,20.10
2018-08-18T23:17:07.788Z,20.20
2018-08-18T23:19:37.084Z,20.20
2018-08-18T23:22:06.332Z,20.20
2018-08-18T23:24:37.753Z,20.10
2018-08-18T23:27:06.981Z,19.90
2018-08-18T23:29:36.257Z,19.90
2018-08-18T23:32:16.517Z,19.90
2018-08-18T23:34:45.785Z,19.80
2018-08-18T23:37:19.994Z,19.80
2018-08-18T23:39:54.020Z,19.80
2018-08-18T23:42:25.031Z,19.70
2018-08-18T23:44:54.297Z,19.70
2018-08-18T23:47:23.561Z,19.70
2018-08-18T23:49:52.777Z,19.60
2018-08-18T23:52:22.025Z,19.60
2018-08-18T23:54:51.305Z,19.60
2018-08-18T23:57:20.545Z,19.50
2018-08-18T23:59:50.711Z,19.50
